Cumberland Heights, Illinois
Current Conditions -  °F | °C
As of 9:35 AM on Thursday 30 Oct 2014 (Local Time) from KFWC Reporting Station
Clear Clear  
Wind Chill: 47°   Ceiling: Unl
Heat Index: 47°   Visibility: 10mi
Dew Point: 40°   Wind: 3mph
Humidity: 77%   Direction: 130°SE
Pressure: 30.17"   Gusts: NA
Location:  38.3669°N, 88.3516°W
Report Text: KFWC 301435Z AUTO 13003KT 10SM CLR 08/04 A3017 RMK AO1 T00820044
Loading
Personal Weather Stations






























Interactive Weather Map
Tropical Storm Tracking
New forecast layout! Learn more

10-Day Weather Forecast

Advertisements
Track Severe Weather on mobile